DAAT/TMR METAR and TAF weather

Enter ICAO airport designator
Station Type Date Time Source
DAAT METAR 2018/10/16 21:30 UTC NOAA

DAAT 162130Z 30006KT 9999 FEW046 SCT100 24/M00 Q1023


Station Type Date Time Source
DAAT Decoded METAR 2018/10/16 21:30 UTC NOAA

Tamanrasset / Aguenna, Algeria (DAAT) 22-49N 005-28E
Oct 16, 2018 - 05:30 PM EDT / 2018.10.16 2130 UTC
Wind: from the WNW (300 degrees) at 7 MPH (6 KT):0
Visibility: greater than 7 mile(s):0
Sky conditions: partly cloudy
Temperature: 75 F (24 C)
Dew Point: 32 F (0 C)
Relative Humidity: 20%
Pressure (altimeter): 30.21 in. Hg (1023 hPa)
ob: DAAT 162130Z 30006KT 9999 FEW046 SCT100 24/M00 Q1023
cycle: 21

Station Type Date Time Source
DAAT TAF 2018/10/16 18:33 UTC NOAA

TAF DAAT 161700Z 1618/1718 28012KT 9999 SCT046 SCT100 PROB40
TEMPO 1618/1621 26015G25KT FEW046CB
BECMG 1619/1622 VRB02KT
BECMG 1709/1712 22010KT PROB30
TEMPO 1709/1717 24015G25KT FEW046CB


Example: see airport list